Time;durP1;ratioP1;P1;durP2;ratioP2;P2;SDS_P1;SDS_P2;PMS_P1;PMS_P2;Temp;Humidity;BMP_temperature;BMP_pressure;BME280_temperature;BME280_humidity;BME280_pressure;Samples;Min_cycle;Max_cycle;Signal;HPM_P1;HPM_P2
2022/02/06 00:00:10;;;;;;;10.80;4.25;;;7.90;90.80;;;;;;5052056;28;20136;-67
2022/02/06 00:02:38;;;;;;;13.02;4.65;;;7.80;90.90;;;;;;5050372;28;20075;-67
2022/02/06 00:05:04;;;;;;;18.33;5.18;;;7.80;90.90;;;;;;5070645;28;20565;-67
2022/02/06 00:07:30;;;;;;;14.85;4.07;;;7.90;90.90;;;;;;5068944;28;20406;-66
2022/02/06 00:09:57;;;;;;;14.18;4.75;;;7.90;90.90;;;;;;5055376;28;20033;-66
2022/02/06 00:12:23;;;;;;;10.30;4.45;;;7.90;90.90;;;;;;5057384;28;20056;-66
2022/02/06 00:14:49;;;;;;;17.35;5.05;;;7.90;90.90;;;;;;5066980;28;20053;-67
2022/02/06 00:17:14;;;;;;;14.45;4.03;;;7.90;90.90;;;;;;5058515;28;20032;-66
2022/02/06 00:19:42;;;;;;;10.98;4.43;;;7.90;90.90;;;;;;5060390;28;20035;-66
2022/02/06 00:22:24;;;;;;;11.63;3.75;;;7.90;90.90;;;;;;5066573;28;20032;-67
2022/02/06 00:25:07;;;;;;;14.57;4.70;;;8.00;91.00;;;;;;5050396;28;20032;-66
2022/02/06 00:43:27;;;;;;;14.45;4.55;;;8.10;90.90;;;;;;5113752;28;20035;-65
2022/02/06 00:45:53;;;;;;;14.43;5.07;;;8.00;90.80;;;;;;5123545;28;20035;-66
2022/02/06 00:48:25;;;;;;;11.73;4.75;;;8.00;90.80;;;;;;5106608;28;20058;-66
2022/02/06 00:51:03;;;;;;;15.55;4.20;;;8.00;90.90;;;;;;5118275;28;20023;-65
2022/02/06 00:53:29;;;;;;;13.30;4.85;;;8.00;90.90;;;;;;5095294;28;20028;-65
2022/02/06 00:55:55;;;;;;;12.30;4.45;;;8.00;90.90;;;;;;5091561;28;20102;-66
2022/02/06 00:58:21;;;;;;;17.15;5.43;;;8.00;90.90;;;;;;5110869;28;20106;-66
2022/02/06 01:00:48;;;;;;;13.40;4.72;;;8.00;90.90;;;;;;5122263;28;20457;-66
2022/02/06 01:03:14;;;;;;;11.23;4.63;;;8.00;90.90;;;;;;5105913;28;20407;-66
2022/02/06 01:05:40;;;;;;;12.23;4.70;;;8.00;90.90;;;;;;5106031;28;20028;-66
2022/02/06 01:08:05;;;;;;;13.80;4.88;;;8.00;90.90;;;;;;5111643;27;20433;-65
2022/02/06 01:10:31;;;;;;;13.55;4.43;;;8.00;90.90;;;;;;5105577;28;20024;-65
2022/02/06 01:13:11;;;;;;;9.85;3.97;;;8.00;90.90;;;;;;5105236;27;20051;-65
2022/02/06 01:15:37;;;;;;;13.05;4.55;;;8.10;90.90;;;;;;5101190;28;20032;-66
2022/02/06 01:18:07;;;;;;;15.40;4.63;;;8.10;90.80;;;;;;5122964;28;20029;-66
2022/02/06 01:20:38;;;;;;;16.52;5.10;;;8.00;90.80;;;;;;5110952;28;20114;-65
2022/02/06 01:23:09;;;;;;;10.82;4.47;;;8.10;90.90;;;;;;5122676;28;20524;-66
2022/02/06 01:25:50;;;;;;;10.07;4.20;;;8.10;90.90;;;;;;5111611;28;20032;-66
2022/02/06 01:28:21;;;;;;;11.23;3.95;;;8.10;90.80;;;;;;5097555;28;20034;-66
2022/02/06 01:31:01;;;;;;;16.75;4.65;;;8.10;90.80;;;;;;5099504;28;20373;-67
2022/02/06 01:33:33;;;;;;;13.98;4.65;;;8.10;90.90;;;;;;5117544;28;20026;-66
2022/02/06 01:38:49;;;;;;;11.32;4.30;;;8.10;90.90;;;;;;5099142;28;20044;-67
2022/02/06 01:41:18;;;;;;;15.02;5.10;;;8.10;90.90;;;;;;5090625;28;20478;-66
2022/02/06 01:43:50;;;;;;;12.85;4.35;;;8.10;90.90;;;;;;5094785;28;20036;-67
2022/02/06 02:13:18;;;;;;;8.15;3.35;;;8.10;91.10;;;;;;5094796;28;20032;-67
2022/02/06 02:45:09;;;;;;;10.57;3.97;;;8.20;91.20;;;;;;5090890;28;20043;-66
2022/02/06 02:47:37;;;;;;;8.20;3.53;;;8.20;91.20;;;;;;5087677;28;20032;-67
2022/02/06 02:50:10;;;;;;;6.93;3.22;;;8.20;91.20;;;;;;5090172;28;20024;-66
2022/02/06 02:55:19;;;;;;;9.60;3.35;;;8.20;91.30;;;;;;5101243;28;20020;-66
2022/02/06 02:57:51;;;;;;;;;;;8.20;91.30;;;;;;5103059;28;20478;-66
2022/02/06 03:02:43;;;;;;;8.20;3.70;;;8.20;91.30;;;;;;5095570;28;20087;-66
2022/02/06 03:05:09;;;;;;;8.27;3.25;;;8.20;91.40;;;;;;5092487;28;20028;-66
2022/02/06 03:07:34;;;;;;;13.80;4.00;;;8.20;91.40;;;;;;5075808;28;20093;-66
2022/02/06 03:10:00;;;;;;;9.50;5.05;;;8.20;91.40;;;;;;5092874;28;20051;-66
2022/02/06 03:12:28;;;;;;;9.95;4.03;;;8.20;91.30;;;;;;5101365;28;20054;-67
2022/02/06 03:15:04;;;;;;;10.15;3.75;;;8.20;91.20;;;;;;5102691;28;20035;-67
2022/02/06 03:17:38;;;;;;;8.07;3.63;;;8.20;91.20;;;;;;5087238;28;20024;-66
2022/02/06 03:20:09;;;;;;;11.90;4.05;;;8.20;91.30;;;;;;5085192;28;20539;-66
2022/02/06 03:22:47;;;;;;;7.68;3.13;;;8.20;91.30;;;;;;5087839;28;20173;-66
2022/02/06 03:25:18;;;;;;;10.35;3.85;;;8.20;91.30;;;;;;5096310;28;20487;-67
2022/02/06 03:27:44;;;;;;;6.47;3.38;;;8.20;91.30;;;;;;5096422;28;20089;-65
2022/02/06 03:30:10;;;;;;;6.07;3.60;;;8.20;91.30;;;;;;5094305;28;20036;-66
2022/02/06 03:32:36;;;;;;;8.43;4.07;;;8.20;91.50;;;;;;5089912;28;20467;-65
2022/02/06 03:35:02;;;;;;;9.10;3.78;;;8.20;91.20;;;;;;5091043;28;20039;-65
2022/02/06 03:37:28;;;;;;;7.55;4.07;;;8.20;91.30;;;;;;5078604;28;20070;-66
2022/02/06 03:39:55;;;;;;;9.05;3.75;;;8.20;91.30;;;;;;5088738;28;20032;-66
2022/02/06 03:42:24;;;;;;;9.32;4.00;;;8.20;91.30;;;;;;5089398;28;20031;-65
2022/02/06 03:44:53;;;;;;;10.02;3.50;;;8.20;91.30;;;;;;5091409;28;20534;-66
2022/02/06 03:47:21;;;;;;;7.10;3.05;;;8.20;91.30;;;;;;5098224;28;20020;-66
2022/02/06 03:50:01;;;;;;;7.93;3.20;;;8.20;91.30;;;;;;5102573;28;20032;-65
2022/02/06 03:52:43;;;;;;;9.73;3.85;;;8.20;91.30;;;;;;5099800;28;20023;-66
2022/02/06 03:55:09;;;;;;;8.13;3.00;;;8.10;91.30;;;;;;5089019;28;20024;-66
2022/02/06 03:57:34;;;;;;;6.50;2.95;;;8.20;91.30;;;;;;5105412;28;20103;-66
2022/02/06 04:00:00;;;;;;;4.78;2.90;;;8.10;91.30;;;;;;5094721;28;20181;-66
2022/02/06 04:02:26;;;;;;;9.98;3.40;;;8.10;91.30;;;;;;5097061;28;20516;-66
2022/02/06 04:04:51;;;;;;;6.43;2.60;;;8.20;91.40;;;;;;5101822;28;20483;-66
2022/02/06 04:07:17;;;;;;;7.00;2.78;;;8.10;91.40;;;;;;5089023;28;20379;-66
2022/02/06 04:09:49;;;;;;;8.75;3.35;;;8.20;91.40;;;;;;5096815;28;20043;-66
2022/02/06 04:12:18;;;;;;;7.47;3.00;;;8.20;91.40;;;;;;5091819;28;20031;-66
2022/02/06 04:14:55;;;;;;;7.38;3.95;;;8.10;91.40;;;;;;5098873;28;20429;-69
2022/02/06 04:17:30;;;;;;;7.05;3.15;;;8.20;91.40;;;;;;5091491;28;20640;-66
2022/02/06 04:19:56;;;;;;;9.85;3.20;;;8.20;91.40;;;;;;5097937;28;20032;-66
2022/02/06 04:22:22;;;;;;;5.78;2.75;;;8.20;91.40;;;;;;5090352;28;20501;-66
2022/02/06 04:24:49;;;;;;;8.35;3.47;;;8.10;91.50;;;;;;5089698;28;20487;-66
2022/02/06 04:27:16;;;;;;;5.32;3.05;;;8.20;91.40;;;;;;5101679;28;20056;-66
2022/02/06 04:29:42;;;;;;;8.27;3.45;;;8.20;91.40;;;;;;5094586;28;20031;-66
2022/02/06 04:32:08;;;;;;;6.13;3.30;;;8.20;91.10;;;;;;5101627;28;20386;-66
2022/02/06 04:34:35;;;;;;;8.40;3.45;;;8.20;91.40;;;;;;5095028;28;20032;-66
2022/02/06 04:37:18;;;;;;;6.00;2.80;;;8.20;91.40;;;;;;5099695;28;20028;-66
2022/02/06 05:20:11;;;;;;;10.48;5.43;;;8.20;91.80;;;;;;5093153;28;20452;-66
2022/02/06 05:22:41;;;;;;;10.05;5.30;;;8.20;91.90;;;;;;5085288;28;20378;-65
2022/02/06 05:33:11;;;;;;;11.27;4.80;;;8.30;91.90;;;;;;5095362;28;20071;-66
2022/02/06 05:35:38;;;;;;;13.65;5.57;;;8.30;91.90;;;;;;5106883;28;20036;-65
2022/02/06 05:38:04;;;;;;;15.07;5.13;;;8.40;91.90;;;;;;5098260;28;20482;-65
2022/02/06 05:40:30;;;;;;;8.95;4.30;;;8.40;91.90;;;;;;5093666;28;20028;-66
2022/02/06 05:42:55;;;;;;;9.10;4.72;;;8.40;91.90;;;;;;5101643;28;20055;-65
2022/02/06 05:45:21;;;;;;;12.52;5.30;;;8.40;91.90;;;;;;5092587;28;20032;-65
2022/02/06 05:47:47;;;;;;;9.60;4.85;;;8.40;91.90;;;;;;5088299;28;20115;-65
2022/02/06 05:50:17;;;;;;;15.57;4.97;;;8.40;91.90;;;;;;5091541;28;20028;-66
2022/02/06 05:52:43;;;;;;;12.27;4.32;;;8.50;91.90;;;;;;5093656;28;20059;-66
2022/02/06 05:55:09;;;;;;;13.80;4.93;;;8.50;91.80;;;;;;5092619;28;20024;-67
2022/02/06 05:57:36;;;;;;;12.18;4.68;;;8.50;91.80;;;;;;5093126;28;20032;-66
2022/02/06 06:00:04;;;;;;;11.85;4.50;;;8.50;91.80;;;;;;5091544;28;20024;-66
2022/02/06 06:02:29;;;;;;;15.75;5.30;;;8.60;91.80;;;;;;5091180;28;20028;-66
2022/02/06 06:04:56;;;;;;;12.93;4.90;;;8.60;91.80;;;;;;5091714;28;20503;-66
2022/02/06 06:07:23;;;;;;;13.35;5.13;;;8.60;91.70;;;;;;5093766;28;20035;-66
2022/02/06 06:09:48;;;;;;;18.40;5.97;;;8.60;91.70;;;;;;5105146;28;20538;-66
2022/02/06 06:12:14;;;;;;;18.73;5.90;;;8.60;91.70;;;;;;5106709;28;20153;-66
2022/02/06 06:14:41;;;;;;;10.60;5.00;;;8.60;91.70;;;;;;5093367;28;20042;-65
2022/02/06 06:17:07;;;;;;;9.90;4.85;;;8.60;91.70;;;;;;5102544;28;20031;-66
2022/02/06 06:19:35;;;;;;;10.88;5.15;;;8.70;91.70;;;;;;5091042;28;20047;-66
2022/02/06 06:22:05;;;;;;;11.48;5.10;;;8.70;92.00;;;;;;5091781;28;20540;-66
2022/02/06 06:24:31;;;;;;;14.68;5.38;;;8.70;91.70;;;;;;5090345;28;20363;-66
2022/02/06 06:26:57;;;;;;;16.00;5.82;;;8.70;91.70;;;;;;5092720;28;20073;-66
2022/02/06 06:29:23;;;;;;;16.40;6.18;;;8.70;91.70;;;;;;5104355;28;20546;-66
2022/02/06 06:31:49;;;;;;;12.40;5.25;;;8.70;91.70;;;;;;5094519;28;20101;-66
2022/02/06 06:34:15;;;;;;;13.20;6.13;;;8.70;91.70;;;;;;5089140;28;20054;-66
2022/02/06 06:36:41;;;;;;;14.48;6.05;;;8.70;91.70;;;;;;5095753;28;20028;-66
2022/02/06 06:39:07;;;;;;;11.65;5.40;;;8.70;91.70;;;;;;5091393;28;20462;-66
2022/02/06 06:41:32;;;;;;;11.90;5.60;;;8.70;91.80;;;;;;5095342;28;20098;-66
2022/02/06 06:43:58;;;;;;;9.43;6.00;;;8.70;91.80;;;;;;5092611;28;20031;-66
2022/02/06 06:46:24;;;;;;;11.00;5.68;;;8.60;91.80;;;;;;5092927;28;20496;-65
2022/02/06 06:48:49;;;;;;;14.82;6.88;;;8.70;91.90;;;;;;5089398;28;20020;-66
2022/02/06 06:51:15;;;;;;;10.85;6.22;;;8.70;91.90;;;;;;5091993;28;20055;-65
2022/02/06 06:53:44;;;;;;;13.48;6.32;;;8.70;91.90;;;;;;5090140;28;20024;-66
2022/02/06 06:56:21;;;;;;;9.82;6.20;;;8.70;91.90;;;;;;5086374;28;20036;-66
2022/02/06 06:58:50;;;;;;;14.98;6.82;;;8.70;91.90;;;;;;5099340;28;20055;-66
2022/02/06 07:04:00;;;;;;;11.15;6.28;;;8.70;91.90;;;;;;5088113;28;20032;-67
2022/02/06 07:06:26;;;;;;;9.40;6.13;;;8.60;91.90;;;;;;5089270;28;20028;-66
2022/02/06 07:08:51;;;;;;;8.73;5.68;;;8.70;91.90;;;;;;5098538;28;20096;-66
2022/02/06 07:11:17;;;;;;;10.20;6.88;;;8.70;91.90;;;;;;5094655;28;20111;-67
2022/02/06 07:13:43;;;;;;;6.70;5.57;;;8.70;91.90;;;;;;5089254;28;20024;-67
2022/02/06 07:16:10;;;;;;;8.40;5.78;;;8.70;91.80;;;;;;5089385;28;20115;-67
2022/02/06 07:18:36;;;;;;;7.63;4.72;;;8.60;91.80;;;;;;5088646;28;20031;-66
2022/02/06 07:21:02;;;;;;;8.68;5.97;;;8.70;91.90;;;;;;5088708;28;20028;-66
2022/02/06 07:23:27;;;;;;;7.35;6.15;;;8.70;91.80;;;;;;5087180;28;20224;-66
2022/02/06 07:25:58;;;;;;;8.50;5.70;;;8.70;91.80;;;;;;5093473;28;20065;-66
2022/02/06 07:28:24;;;;;;;8.07;5.57;;;8.70;91.80;;;;;;5090124;28;20501;-66
2022/02/06 07:30:52;;;;;;;6.85;5.38;;;8.70;91.70;;;;;;5090306;28;20367;-66
2022/02/06 07:33:20;;;;;;;6.78;5.03;;;8.70;91.70;;;;;;5091608;28;20024;-67
2022/02/06 07:35:47;;;;;;;9.45;5.50;;;8.70;91.80;;;;;;5089812;28;20089;-67
2022/02/06 07:38:14;;;;;;;7.20;5.32;;;8.60;91.70;;;;;;5089427;28;20118;-67
2022/02/06 07:40:41;;;;;;;9.50;5.82;;;8.70;91.80;;;;;;5084643;28;20073;-68
2022/02/06 07:43:08;;;;;;;7.93;5.35;;;8.70;91.70;;;;;;5088885;28;20106;-67
2022/02/06 07:45:36;;;;;;;7.40;5.35;;;8.70;91.70;;;;;;5094260;28;20100;-67
2022/02/06 07:48:04;;;;;;;8.48;6.10;;;8.70;91.70;;;;;;5082846;28;20165;-68
2022/02/06 07:50:30;;;;;;;7.53;5.50;;;8.70;91.70;;;;;;5091611;28;20598;-67
2022/02/06 07:52:55;;;;;;;8.85;5.80;;;8.70;91.70;;;;;;5088656;28;20051;-67
2022/02/06 07:55:21;;;;;;;7.80;5.35;;;8.70;91.70;;;;;;5088819;28;20032;-67
2022/02/06 07:57:47;;;;;;;8.98;6.32;;;8.70;91.70;;;;;;5098620;28;20463;-67
2022/02/06 08:00:13;;;;;;;9.63;5.70;;;8.70;91.80;;;;;;5087815;28;20032;-67
2022/02/06 08:02:40;;;;;;;7.80;5.60;;;8.70;91.80;;;;;;5102763;28;20433;-67
2022/02/06 08:05:06;;;;;;;8.70;5.80;;;8.70;91.80;;;;;;5086400;28;20028;-67
2022/02/06 08:07:32;;;;;;;9.70;5.68;;;8.70;91.80;;;;;;5087877;28;20497;-67
2022/02/06 08:10:00;;;;;;;8.93;5.30;;;8.70;91.80;;;;;;5094381;28;20024;-67
2022/02/06 08:12:29;;;;;;;6.93;5.47;;;8.70;91.90;;;;;;5090357;28;20052;-67
2022/02/06 08:14:56;;;;;;;8.60;5.10;;;8.70;91.90;;;;;;5096281;28;20073;-67
2022/02/06 08:17:36;;;;;;;9.25;5.22;;;8.70;91.90;;;;;;5088160;28;20035;-67
2022/02/06 08:20:12;;;;;;;8.15;5.05;;;8.70;91.90;;;;;;5104103;28;20084;-67
2022/02/06 08:22:38;;;;;;;8.65;5.43;;;8.80;92.00;;;;;;5089678;28;20035;-67
2022/02/06 08:25:05;;;;;;;8.90;5.28;;;8.80;91.90;;;;;;5088857;28;20035;-67
2022/02/06 08:27:31;;;;;;;8.18;5.53;;;8.80;92.10;;;;;;5093819;28;20130;-67
2022/02/06 08:29:58;;;;;;;8.18;5.57;;;8.80;91.90;;;;;;5106354;28;20599;-67
2022/02/06 08:32:26;;;;;;;7.00;5.45;;;8.80;92.00;;;;;;5068064;28;20028;-67
2022/02/06 08:34:52;;;;;;;8.73;5.90;;;8.80;92.00;;;;;;5114807;28;20087;-68
2022/02/06 08:37:18;;;;;;;8.23;5.88;;;8.80;92.00;;;;;;5084349;28;20024;-67
2022/02/06 08:39:45;;;;;;;11.15;6.28;;;8.80;92.00;;;;;;5093509;28;20027;-67
2022/02/06 08:42:12;;;;;;;9.93;6.50;;;8.80;92.00;;;;;;5095810;28;20434;-65
2022/02/06 08:44:42;;;;;;;7.45;5.25;;;8.80;92.00;;;;;;5079928;28;20039;-66
2022/02/06 08:47:10;;;;;;;8.50;5.82;;;8.80;91.90;;;;;;5087453;28;20028;-65
2022/02/06 08:49:37;;;;;;;7.65;5.45;;;8.80;92.00;;;;;;5086385;28;20040;-66
2022/02/06 08:52:04;;;;;;;7.20;5.45;;;8.80;92.00;;;;;;5090889;28;20111;-65
2022/02/06 08:54:33;;;;;;;5.13;4.65;;;8.80;92.00;;;;;;5088752;28;20549;-66
2022/02/06 08:57:02;;;;;;;6.53;4.70;;;8.80;92.00;;;;;;5090636;28;20038;-66
2022/02/06 08:59:32;;;;;;;5.53;4.63;;;8.80;92.00;;;;;;5090217;28;20490;-66
2022/02/06 09:02:01;;;;;;;5.85;4.57;;;8.80;91.90;;;;;;5084296;28;20032;-66
2022/02/06 09:04:27;;;;;;;5.28;4.22;;;8.90;91.90;;;;;;5072264;28;20485;-66
2022/02/06 09:06:57;;;;;;;4.30;3.75;;;8.80;91.90;;;;;;5083796;28;20028;-67
2022/02/06 09:09:24;;;;;;;5.57;3.35;;;8.80;91.90;;;;;;5090522;28;20028;-67
2022/02/06 09:11:52;;;;;;;4.53;3.20;;;8.90;91.90;;;;;;5092181;28;20024;-70
2022/02/06 09:14:18;;;;;;;4.93;3.20;;;8.80;91.80;;;;;;5092439;28;20024;-71
2022/02/06 09:16:44;;;;;;;3.55;2.83;;;8.80;91.80;;;;;;5091292;28;20059;-71
2022/02/06 09:19:12;;;;;;;3.80;2.80;;;8.80;91.80;;;;;;5091252;28;20443;-70
2022/02/06 09:21:38;;;;;;;3.80;2.90;;;8.80;91.80;;;;;;5092375;28;20039;-67
2022/02/06 09:24:05;;;;;;;4.07;3.00;;;8.80;91.80;;;;;;5094376;28;20118;-68
2022/02/06 09:26:31;;;;;;;2.88;2.65;;;8.90;91.80;;;;;;5092148;28;20048;-67
2022/02/06 09:28:56;;;;;;;5.18;2.83;;;8.90;91.80;;;;;;5092317;28;20012;-70
2022/02/06 09:31:25;;;;;;;4.45;3.33;;;8.80;91.80;;;;;;5089419;28;20425;-68
2022/02/06 09:36:17;;;;;;;3.45;2.90;;;8.80;91.80;;;;;;5096996;28;20131;-72
2022/02/06 09:38:42;;;;;;;5.03;3.10;;;8.80;91.80;;;;;;5083594;28;20028;-68
2022/02/06 09:41:09;;;;;;;4.82;3.03;;;8.80;91.80;;;;;;5080676;28;20526;-70
2022/02/06 09:43:36;;;;;;;2.70;2.33;;;8.80;91.90;;;;;;5090270;28;20501;-68
2022/02/06 09:46:03;;;;;;;6.03;2.85;;;8.80;91.90;;;;;;5091944;28;20031;-67
2022/02/06 09:48:32;;;;;;;4.43;2.70;;;8.90;91.90;;;;;;5072247;28;20033;-68
2022/02/06 09:50:59;;;;;;;3.70;2.75;;;8.90;91.90;;;;;;5081244;28;20539;-67
2022/02/06 09:53:32;;;;;;;6.57;3.15;;;8.80;91.90;;;;;;5082516;28;20024;-68
2022/02/06 09:58:16;;;;;;;3.72;2.97;;;8.80;91.60;;;;;;5117505;27;20422;-68
2022/02/06 10:00:44;;;;;;;7.30;3.10;;;8.80;91.90;;;;;;5102664;28;20030;-68
2022/02/06 10:03:14;;;;;;;4.53;2.70;;;8.90;91.90;;;;;;5106892;28;20047;-67
2022/02/06 10:05:43;;;;;;;7.55;3.13;;;8.90;91.90;;;;;;5103000;28;20035;-68
2022/02/06 10:08:16;;;;;;;5.75;2.45;;;8.90;91.90;;;;;;5105942;28;20557;-67
2022/02/06 10:10:58;;;;;;;4.82;2.78;;;8.90;91.90;;;;;;5104602;28;20024;-67
2022/02/06 10:13:24;;;;;;;5.43;2.70;;;9.00;91.90;;;;;;5103106;28;20035;-67
2022/02/06 10:15:49;;;;;;;4.68;2.70;;;9.00;91.90;;;;;;5105360;28;20031;-67
2022/02/06 10:18:16;;;;;;;4.30;2.40;;;8.90;91.90;;;;;;5104541;28;20028;-68
2022/02/06 10:20:46;;;;;;;4.82;2.47;;;8.90;91.80;;;;;;5105522;28;20028;-67
2022/02/06 10:23:29;;;;;;;4.97;2.60;;;9.00;91.90;;;;;;5105234;28;20390;-67
2022/02/06 10:26:05;;;;;;;4.68;2.10;;;8.90;91.90;;;;;;5106036;28;20023;-67
2022/02/06 10:30:58;;;;;;;3.47;1.90;;;9.00;91.80;;;;;;5101203;28;20419;-68
2022/02/06 10:33:43;;;;;;;2.85;1.90;;;9.00;91.80;;;;;;5101735;28;20569;-67
2022/02/06 10:36:09;;;;;;;3.70;2.03;;;9.00;91.80;;;;;;5112485;28;20033;-67
2022/02/06 10:38:35;;;;;;;4.75;1.77;;;9.00;91.80;;;;;;5107443;28;20020;-68
2022/02/06 10:41:13;;;;;;;4.00;1.58;;;9.00;91.70;;;;;;5110869;28;20109;-67
2022/02/06 10:44:04;;;;;;;3.13;1.50;;;9.00;91.80;;;;;;5102718;28;20024;-67
2022/02/06 10:46:32;;;;;;;3.35;1.50;;;9.00;91.80;;;;;;5087385;28;20072;-67
2022/02/06 10:49:02;;;;;;;2.65;1.60;;;9.00;91.80;;;;;;5104603;28;20368;-67
2022/02/06 10:51:37;;;;;;;3.95;1.73;;;9.00;91.80;;;;;;5103747;28;20085;-67
2022/02/06 10:54:05;;;;;;;3.70;1.48;;;9.00;91.70;;;;;;5111961;28;20536;-67
2022/02/06 10:56:31;;;;;;;2.80;1.63;;;9.00;91.70;;;;;;5105735;28;20123;-67
2022/02/06 10:59:01;;;;;;;2.95;1.75;;;9.00;91.70;;;;;;5089065;28;20123;-67
2022/02/06 11:01:30;;;;;;;4.28;1.40;;;9.00;91.80;;;;;;5105442;28;20458;-67
2022/02/06 11:04:25;;;;;;;2.13;1.40;;;9.00;91.70;;;;;;5104333;28;20409;-67
2022/02/06 11:07:06;;;;;;;4.65;1.80;;;9.00;91.80;;;;;;5100894;28;20092;-67
2022/02/06 11:09:31;;;;;;;4.75;2.00;;;9.00;91.70;;;;;;5095888;28;20024;-67
2022/02/06 11:12:01;;;;;;;3.35;1.90;;;9.00;91.80;;;;;;5100525;28;20033;-67
2022/02/06 11:14:30;;;;;;;1.73;1.58;;;9.00;91.80;;;;;;5084301;28;20024;-67
2022/02/06 11:16:57;;;;;;;3.92;2.42;;;9.00;91.80;;;;;;5108868;28;20467;-67
2022/02/06 11:19:23;;;;;;;3.80;2.30;;;9.00;91.80;;;;;;5090928;28;20366;-67
2022/02/06 11:22:08;;;;;;;5.40;1.50;;;9.00;91.90;;;;;;5087268;28;20375;-67
2022/02/06 11:24:38;;;;;;;2.17;1.52;;;9.00;91.90;;;;;;5091271;28;20364;-67
2022/02/06 11:27:06;;;;;;;4.43;1.95;;;8.90;91.90;;;;;;5096328;28;20107;-67
2022/02/06 11:29:32;;;;;;;3.70;1.77;;;9.00;91.90;;;;;;5094964;28;20028;-67
2022/02/06 11:31:58;;;;;;;2.95;1.48;;;9.00;92.00;;;;;;5087565;28;20039;-67
2022/02/06 11:34:24;;;;;;;1.88;1.50;;;8.90;92.30;;;;;;5068937;28;20368;-67
2022/02/06 11:45:59;;;;;;;3.05;1.77;;;9.00;92.10;;;;;;5078455;28;20040;-66
2022/02/06 11:48:27;;;;;;;;;;;9.00;92.10;;;;;;5090326;28;20060;-67
2022/02/06 11:50:55;;;;;;;5.03;1.80;;;9.00;92.10;;;;;;5090826;28;19911;-67
2022/02/06 11:53:42;;;;;;;6.60;1.85;;;9.00;92.20;;;;;;5090439;28;20440;-67
2022/02/06 11:56:30;;;;;;;0.68;0.40;;;9.10;92.30;;;;;;5077992;22;20140;-90
2022/02/06 11:59:10;;;;;;;0.52;0.20;;;8.90;90.80;;;;;;5033202;28;20473;-89
2022/02/06 12:01:36;;;;;;;1.70;0.30;;;8.80;88.80;;;;;;5072112;28;20099;-95
2022/02/06 12:04:25;;;;;;;1.67;0.40;;;8.60;88.40;;;;;;5031995;28;20116;-90
2022/02/06 12:06:53;;;;;;;2.63;0.30;;;8.50;87.60;;;;;;5042695;28;20036;-89
2022/02/06 12:09:28;;;;;;;1.73;0.20;;;8.40;87.50;;;;;;5040626;28;20082;-89
2022/02/06 12:12:16;;;;;;;1.15;0.20;;;8.20;86.90;;;;;;5027737;28;20033;-89
2022/02/06 12:14:51;;;;;;;0.35;0.35;;;8.20;86.80;;;;;;5018839;28;20021;-89
2022/02/06 12:18:05;;;;;;;1.25;0.30;;;8.10;86.70;;;;;;5018938;28;20037;-92
2022/02/06 12:20:10;;;;;;;1.17;0.30;;;8.10;86.80;;;;;;5050105;28;20035;-93
2022/02/06 12:22:39;;;;;;;2.05;0.30;;;8.10;86.60;;;;;;5054841;28;20029;-92
2022/02/06 12:25:36;;;;;;;1.77;0.30;;;8.00;86.80;;;;;;5053889;28;20364;-91
2022/02/06 12:28:11;;;;;;;3.85;0.43;;;8.00;87.10;;;;;;5047796;28;20032;-91
2022/02/06 12:30:40;;;;;;;1.45;0.65;;;7.90;87.10;;;;;;5053453;28;20032;-92
2022/02/06 12:33:30;;;;;;;1.92;0.40;;;7.90;87.30;;;;;;5021267;28;20029;-91
2022/02/06 12:38:41;;;;;;;2.10;0.50;;;7.90;87.10;;;;;;5072852;28;20066;-91
2022/02/06 12:41:21;;;;;;;1.95;0.50;;;8.00;87.30;;;;;;5050107;28;20033;-91
2022/02/06 12:43:53;;;;;;;3.03;0.50;;;8.00;87.30;;;;;;5061315;28;20029;-91
2022/02/06 12:46:22;;;;;;;1.40;0.93;;;8.00;87.20;;;;;;5053201;28;20089;-92
2022/02/06 12:48:49;;;;;;;2.53;0.45;;;8.00;87.20;;;;;;5053028;28;20032;-91
2022/02/06 12:51:24;;;;;;;1.15;0.50;;;8.00;87.10;;;;;;5053850;28;20033;-92
2022/02/06 12:54:03;;;;;;;3.38;0.50;;;8.00;87.20;;;;;;5053962;28;20021;-91
2022/02/06 12:56:31;;;;;;;1.67;0.52;;;8.00;87.40;;;;;;5053891;28;20103;-91
2022/02/06 12:58:59;;;;;;;4.20;0.70;;;8.00;87.30;;;;;;5037413;28;20040;-92
2022/02/06 13:01:40;;;;;;;1.88;0.55;;;8.10;87.00;;;;;;5053539;28;20029;-92
2022/02/06 13:04:09;;;;;;;1.65;0.50;;;8.00;86.90;;;;;;5037681;28;20025;-90
2022/02/06 13:06:42;;;;;;;1.38;0.70;;;8.00;87.10;;;;;;5039141;28;20033;-92
2022/02/06 13:09:17;;;;;;;1.40;0.52;;;8.00;87.50;;;;;;5066288;28;20124;-93
2022/02/06 13:12:06;;;;;;;4.50;0.70;;;8.00;87.60;;;;;;5053411;28;20025;-92
2022/02/06 13:22:51;;;;;;;4.97;0.80;;;8.20;87.50;;;;;;5053305;28;20025;-93
2022/02/06 13:38:42;;;;;;;4.72;0.90;;;8.20;87.70;;;;;;5074463;28;20498;-92
2022/02/06 13:41:13;;;;;;;3.50;1.05;;;8.20;87.90;;;;;;5053276;28;20072;-94
2022/02/06 13:43:41;;;;;;;4.78;1.20;;;8.20;88.00;;;;;;5036648;28;20031;-93
2022/02/06 13:46:25;;;;;;;7.05;1.25;;;8.20;87.90;;;;;;5053002;28;20476;-93
2022/02/06 13:48:51;;;;;;;6.63;1.10;;;8.20;87.90;;;;;;5053392;28;20090;-93
2022/02/06 13:51:24;;;;;;;7.43;1.20;;;8.20;87.70;;;;;;5053083;28;20028;-94
2022/02/06 13:54:02;;;;;;;5.80;1.00;;;8.20;87.80;;;;;;5053267;28;20036;-94
2022/02/06 13:56:28;;;;;;;3.67;0.90;;;8.20;88.40;;;;;;5052669;28;20056;-92
2022/02/06 13:59:09;;;;;;;7.00;0.85;;;8.20;87.80;;;;;;5053361;28;20540;-94
2022/02/06 14:01:42;;;;;;;7.45;1.20;;;8.20;88.00;;;;;;5052867;28;20025;-94
2022/02/06 14:04:28;;;;;;;5.20;1.10;;;8.20;87.90;;;;;;5052938;28;20029;-94
2022/02/06 14:07:20;;;;;;;4.55;0.90;;;8.20;87.80;;;;;;5051127;28;20094;-89
2022/02/06 14:10:01;;;;;;;4.33;1.47;;;8.30;87.80;;;;;;5050657;28;20044;-89
2022/02/06 14:12:27;;;;;;;7.28;1.10;;;8.30;87.60;;;;;;5041503;28;20025;-90
2022/02/06 14:15:00;;;;;;;8.50;1.02;;;8.30;87.50;;;;;;5034163;28;20025;-92
2022/02/06 14:17:45;;;;;;;6.53;1.05;;;8.40;87.60;;;;;;5052875;28;20032;-92
2022/02/06 14:20:18;;;;;;;9.52;1.05;;;8.40;87.70;;;;;;5038995;28;20021;-94
2022/02/06 14:22:54;;;;;;;6.15;1.45;;;8.40;87.60;;;;;;5033270;28;20106;-89
2022/02/06 14:25:24;;;;;;;5.93;1.05;;;8.40;87.40;;;;;;5050138;28;20052;-88
2022/02/06 14:27:50;;;;;;;5.90;1.30;;;8.40;87.20;;;;;;5049796;28;20029;-88
2022/02/06 14:30:30;;;;;;;10.60;1.83;;;8.50;87.30;;;;;;5051851;28;20035;-93
2022/02/06 14:32:56;;;;;;;9.30;1.85;;;8.50;87.10;;;;;;5052791;28;20119;-94
2022/02/06 14:35:24;;;;;;;6.82;1.23;;;8.50;86.90;;;;;;5050436;28;20060;-88
2022/02/06 14:37:57;;;;;;;7.10;1.08;;;8.50;87.10;;;;;;5048566;28;20078;-88
2022/02/06 14:40:52;;;;;;;7.03;1.55;;;8.50;87.20;;;;;;5049210;28;20033;-89
2022/02/06 14:43:36;;;;;;;7.80;1.42;;;8.50;87.20;;;;;;5045950;28;20048;-89
2022/02/06 14:46:02;;;;;;;10.73;1.65;;;8.60;86.90;;;;;;5051536;28;20029;-89
2022/02/06 14:48:28;;;;;;;8.95;1.33;;;8.70;86.40;;;;;;5051426;28;20025;-89
2022/02/06 14:50:54;;;;;;;8.15;1.98;;;9.00;85.50;;;;;;5020102;28;20040;-88
2022/02/06 14:53:21;;;;;;;9.63;1.95;;;9.10;84.90;;;;;;5020908;28;20024;-92
2022/02/06 14:55:55;;;;;;;5.93;1.30;;;9.10;83.70;;;;;;5053142;28;20055;-89
2022/02/06 14:58:22;;;;;;;6.18;1.02;;;9.10;84.10;;;;;;5054868;28;20017;-92
2022/02/06 15:00:47;;;;;;;6.40;1.17;;;9.20;84.30;;;;;;5060562;28;20035;-92
2022/02/06 15:03:14;;;;;;;4.80;1.00;;;9.30;83.40;;;;;;5058498;28;20025;-93
2022/02/06 15:05:40;;;;;;;3.28;0.80;;;9.40;82.30;;;;;;5039676;28;20021;-91
2022/02/06 15:08:07;;;;;;;6.60;1.10;;;9.40;81.70;;;;;;5050564;28;20021;-89
2022/02/06 15:10:35;;;;;;;5.32;0.90;;;9.40;81.80;;;;;;5035294;28;20086;-91
2022/02/06 15:13:05;;;;;;;7.30;1.60;;;9.30;80.70;;;;;;5051765;28;20063;-89
2022/02/06 15:15:36;;;;;;;2.63;0.88;;;9.30;80.90;;;;;;5037640;28;20067;-89
2022/02/06 15:18:10;;;;;;;6.57;1.27;;;9.30;80.40;;;;;;5035848;28;20100;-89
2022/02/06 15:20:36;;;;;;;4.25;1.00;;;9.30;80.50;;;;;;5052828;28;20025;-89
2022/02/06 15:23:06;;;;;;;6.72;1.13;;;9.20;80.90;;;;;;5053539;28;20545;-89
2022/02/06 15:25:35;;;;;;;5.18;1.17;;;9.10;80.60;;;;;;5052525;28;20067;-89
2022/02/06 15:28:01;;;;;;;6.47;1.63;;;9.10;81.00;;;;;;5052521;28;20036;-89
2022/02/06 15:30:27;;;;;;;5.38;1.20;;;9.00;81.30;;;;;;5043191;28;20052;-89
2022/02/06 15:32:52;;;;;;;5.03;1.30;;;9.00;81.00;;;;;;5052027;28;20032;-89
2022/02/06 15:35:18;;;;;;;8.63;1.25;;;8.90;81.00;;;;;;5021187;28;20029;-92
2022/02/06 15:37:44;;;;;;;9.02;2.03;;;8.90;81.40;;;;;;5055321;28;20499;-91
2022/02/06 15:40:15;;;;;;;3.65;0.90;;;8.90;81.70;;;;;;5022675;28;20108;-91
2022/02/06 15:42:40;;;;;;;13.20;2.65;;;8.80;82.00;;;;;;5043877;28;20027;-92
2022/02/06 15:45:06;;;;;;;5.57;1.33;;;8.80;82.40;;;;;;5032034;28;20029;-91
2022/02/06 15:47:32;;;;;;;4.53;1.00;;;8.80;82.60;;;;;;5020068;28;20488;-91
2022/02/06 15:49:58;;;;;;;9.15;1.60;;;8.80;82.70;;;;;;5046808;28;20120;-91
2022/02/06 15:52:24;;;;;;;4.50;1.00;;;8.80;82.60;;;;;;5019973;28;20037;-91
2022/02/06 15:54:49;;;;;;;5.32;1.10;;;8.80;82.50;;;;;;5022397;28;20558;-90
2022/02/06 15:57:15;;;;;;;7.88;1.27;;;8.70;82.60;;;;;;5028098;28;20057;-90
2022/02/06 15:59:41;;;;;;;6.95;1.17;;;8.70;82.50;;;;;;5050738;28;20029;-91